sensor_id;sensor_type;location;lat;lon;timestamp;P1;durP1;ratioP1;P2;durP2;ratioP2
35602;SDS011;21725;50.836;4.368;2023-10-13T00:01:47;20.45;;;13.93;;
35602;SDS011;21725;50.836;4.368;2023-10-13T00:04:51;20.35;;;14.38;;
35602;SDS011;21725;50.836;4.368;2023-10-13T00:07:52;21.20;;;14.63;;
35602;SDS011;21725;50.836;4.368;2023-10-13T00:11:03;21.77;;;14.68;;
35602;SDS011;21725;50.836;4.368;2023-10-13T00:14:05;20.08;;;15.10;;
35602;SDS011;21725;50.836;4.368;2023-10-13T00:17:16;24.95;;;15.20;;
35602;SDS011;21725;50.836;4.368;2023-10-13T00:20:28;19.45;;;14.05;;
35602;SDS011;21725;50.836;4.368;2023-10-13T00:23:40;25.75;;;15.60;;
35602;SDS011;21725;50.836;4.368;2023-10-13T00:27:07;23.42;;;15.27;;
35602;SDS011;21725;50.836;4.368;2023-10-13T00:30:33;27.80;;;15.03;;
35602;SDS011;21725;50.836;4.368;2023-10-13T00:33:37;26.25;;;15.45;;
35602;SDS011;21725;50.836;4.368;2023-10-13T00:36:41;23.23;;;15.38;;
35602;SDS011;21725;50.836;4.368;2023-10-13T00:40:17;22.75;;;16.15;;
35602;SDS011;21725;50.836;4.368;2023-10-13T00:43:35;25.25;;;17.00;;
35602;SDS011;21725;50.836;4.368;2023-10-13T00:47:04;24.00;;;15.93;;
35602;SDS011;21725;50.836;4.368;2023-10-13T00:50:11;22.73;;;15.32;;
35602;SDS011;21725;50.836;4.368;2023-10-13T00:53:25;29.13;;;17.65;;
35602;SDS011;21725;50.836;4.368;2023-10-13T00:56:28;26.15;;;16.73;;
35602;SDS011;21725;50.836;4.368;2023-10-13T00:59:57;33.97;;;19.45;;
35602;SDS011;21725;50.836;4.368;2023-10-13T01:03:17;32.95;;;18.25;;
35602;SDS011;21725;50.836;4.368;2023-10-13T01:06:26;27.23;;;16.52;;
35602;SDS011;21725;50.836;4.368;2023-10-13T01:09:30;30.48;;;19.15;;
35602;SDS011;21725;50.836;4.368;2023-10-13T01:12:42;34.17;;;19.38;;
35602;SDS011;21725;50.836;4.368;2023-10-13T01:15:52;29.25;;;18.45;;
35602;SDS011;21725;50.836;4.368;2023-10-13T01:18:57;27.30;;;18.70;;
35602;SDS011;21725;50.836;4.368;2023-10-13T01:21:59;31.25;;;18.45;;
35602;SDS011;21725;50.836;4.368;2023-10-13T01:25:05;28.08;;;17.92;;
35602;SDS011;21725;50.836;4.368;2023-10-13T01:28:16;25.85;;;16.58;;
35602;SDS011;21725;50.836;4.368;2023-10-13T01:31:17;26.00;;;18.05;;
35602;SDS011;21725;50.836;4.368;2023-10-13T01:34:33;26.50;;;16.92;;
35602;SDS011;21725;50.836;4.368;2023-10-13T01:37:34;24.58;;;17.33;;
35602;SDS011;21725;50.836;4.368;2023-10-13T01:40:37;26.90;;;16.50;;
35602;SDS011;21725;50.836;4.368;2023-10-13T01:43:38;25.15;;;16.15;;
35602;SDS011;21725;50.836;4.368;2023-10-13T01:46:42;19.45;;;13.35;;
35602;SDS011;21725;50.836;4.368;2023-10-13T01:49:43;24.70;;;15.25;;
35602;SDS011;21725;50.836;4.368;2023-10-13T01:52:47;25.80;;;14.75;;
35602;SDS011;21725;50.836;4.368;2023-10-13T01:56:22;23.08;;;14.02;;
35602;SDS011;21725;50.836;4.368;2023-10-13T01:59:30;16.73;;;12.10;;
35602;SDS011;21725;50.836;4.368;2023-10-13T02:02:30;21.73;;;12.93;;
35602;SDS011;21725;50.836;4.368;2023-10-13T02:05:31;16.27;;;11.63;;
35602;SDS011;21725;50.836;4.368;2023-10-13T02:08:36;18.13;;;12.05;;
35602;SDS011;21725;50.836;4.368;2023-10-13T02:11:43;18.58;;;12.45;;
35602;SDS011;21725;50.836;4.368;2023-10-13T02:14:52;15.68;;;11.05;;
35602;SDS011;21725;50.836;4.368;2023-10-13T02:18:16;21.00;;;11.98;;
35602;SDS011;21725;50.836;4.368;2023-10-13T02:21:26;19.70;;;11.38;;
35602;SDS011;21725;50.836;4.368;2023-10-13T02:24:34;20.10;;;11.07;;
35602;SDS011;21725;50.836;4.368;2023-10-13T02:27:40;16.25;;;10.30;;
35602;SDS011;21725;50.836;4.368;2023-10-13T02:30:42;20.35;;;10.77;;
35602;SDS011;21725;50.836;4.368;2023-10-13T02:33:50;22.50;;;11.57;;
35602;SDS011;21725;50.836;4.368;2023-10-13T02:36:51;17.95;;;10.68;;
35602;SDS011;21725;50.836;4.368;2023-10-13T02:40:01;16.70;;;9.45;;
35602;SDS011;21725;50.836;4.368;2023-10-13T02:43:13;18.40;;;11.07;;
35602;SDS011;21725;50.836;4.368;2023-10-13T02:46:14;19.00;;;10.63;;
35602;SDS011;21725;50.836;4.368;2023-10-13T02:49:16;16.67;;;10.27;;
35602;SDS011;21725;50.836;4.368;2023-10-13T02:52:27;17.20;;;9.90;;
35602;SDS011;21725;50.836;4.368;2023-10-13T02:55:36;19.10;;;10.07;;
35602;SDS011;21725;50.836;4.368;2023-10-13T02:59:08;16.83;;;9.90;;
35602;SDS011;21725;50.836;4.368;2023-10-13T03:02:15;19.33;;;9.68;;
35602;SDS011;21725;50.836;4.368;2023-10-13T03:05:28;17.40;;;9.82;;
35602;SDS011;21725;50.836;4.368;2023-10-13T03:08:33;17.10;;;10.90;;
35602;SDS011;21725;50.836;4.368;2023-10-13T03:11:46;20.92;;;11.32;;
35602;SDS011;21725;50.836;4.368;2023-10-13T03:14:56;18.90;;;10.55;;
35602;SDS011;21725;50.836;4.368;2023-10-13T03:18:13;14.85;;;9.45;;
35602;SDS011;21725;50.836;4.368;2023-10-13T03:21:21;19.98;;;10.15;;
35602;SDS011;21725;50.836;4.368;2023-10-13T03:24:29;15.20;;;8.35;;
35602;SDS011;21725;50.836;4.368;2023-10-13T03:27:49;18.15;;;9.55;;
35602;SDS011;21725;50.836;4.368;2023-10-13T03:30:51;15.00;;;8.95;;
35602;SDS011;21725;50.836;4.368;2023-10-13T03:33:57;18.00;;;9.77;;
35602;SDS011;21725;50.836;4.368;2023-10-13T03:37:19;15.68;;;8.65;;
35602;SDS011;21725;50.836;4.368;2023-10-13T03:40:38;23.67;;;9.98;;
35602;SDS011;21725;50.836;4.368;2023-10-13T03:43:40;19.23;;;9.35;;
35602;SDS011;21725;50.836;4.368;2023-10-13T03:47:05;17.85;;;7.90;;
35602;SDS011;21725;50.836;4.368;2023-10-13T03:50:18;20.33;;;9.23;;
35602;SDS011;21725;50.836;4.368;2023-10-13T03:53:40;15.32;;;8.40;;
35602;SDS011;21725;50.836;4.368;2023-10-13T03:56:56;19.45;;;8.55;;
35602;SDS011;21725;50.836;4.368;2023-10-13T04:00:11;14.70;;;8.60;;
35602;SDS011;21725;50.836;4.368;2023-10-13T04:03:23;15.30;;;7.63;;
35602;SDS011;21725;50.836;4.368;2023-10-13T04:06:35;16.88;;;8.35;;
35602;SDS011;21725;50.836;4.368;2023-10-13T04:09:51;18.45;;;9.40;;
35602;SDS011;21725;50.836;4.368;2023-10-13T04:13:13;17.98;;;8.48;;
35602;SDS011;21725;50.836;4.368;2023-10-13T04:16:32;20.27;;;8.10;;
35602;SDS011;21725;50.836;4.368;2023-10-13T04:20:03;21.77;;;8.45;;
35602;SDS011;21725;50.836;4.368;2023-10-13T04:23:07;20.95;;;9.32;;
35602;SDS011;21725;50.836;4.368;2023-10-13T04:26:19;18.70;;;8.95;;
35602;SDS011;21725;50.836;4.368;2023-10-13T04:29:36;22.55;;;8.95;;
35602;SDS011;21725;50.836;4.368;2023-10-13T04:33:10;22.95;;;7.72;;
35602;SDS011;21725;50.836;4.368;2023-10-13T04:36:29;16.33;;;7.72;;
35602;SDS011;21725;50.836;4.368;2023-10-13T04:39:33;15.57;;;7.55;;
35602;SDS011;21725;50.836;4.368;2023-10-13T04:42:39;16.05;;;7.22;;
35602;SDS011;21725;50.836;4.368;2023-10-13T04:45:52;20.42;;;8.77;;
35602;SDS011;21725;50.836;4.368;2023-10-13T04:49:15;17.58;;;7.43;;
35602;SDS011;21725;50.836;4.368;2023-10-13T04:52:35;17.10;;;8.50;;
35602;SDS011;21725;50.836;4.368;2023-10-13T04:55:53;17.08;;;8.60;;
35602;SDS011;21725;50.836;4.368;2023-10-13T04:59:04;19.15;;;9.15;;
35602;SDS011;21725;50.836;4.368;2023-10-13T05:05:16;18.90;;;9.07;;
35602;SDS011;21725;50.836;4.368;2023-10-13T05:08:51;20.08;;;9.10;;
35602;SDS011;21725;50.836;4.368;2023-10-13T05:12:12;16.42;;;8.77;;
35602;SDS011;21725;50.836;4.368;2023-10-13T05:15:33;16.23;;;7.82;;
35602;SDS011;21725;50.836;4.368;2023-10-13T05:18:52;19.23;;;7.05;;
35602;SDS011;21725;50.836;4.368;2023-10-13T05:22:19;15.85;;;7.00;;
35602;SDS011;21725;50.836;4.368;2023-10-13T05:25:45;16.42;;;5.88;;
35602;SDS011;21725;50.836;4.368;2023-10-13T05:29:05;19.17;;;6.95;;
35602;SDS011;21725;50.836;4.368;2023-10-13T05:32:24;18.20;;;8.00;;
35602;SDS011;21725;50.836;4.368;2023-10-13T05:35:44;16.67;;;7.35;;
35602;SDS011;21725;50.836;4.368;2023-10-13T05:39:06;21.05;;;6.63;;
35602;SDS011;21725;50.836;4.368;2023-10-13T05:52:53;15.75;;;6.72;;
35602;SDS011;21725;50.836;4.368;2023-10-13T05:59:22;22.23;;;6.63;;
35602;SDS011;21725;50.836;4.368;2023-10-13T06:02:41;16.65;;;6.05;;
35602;SDS011;21725;50.836;4.368;2023-10-13T06:06:03;21.98;;;7.30;;
35602;SDS011;21725;50.836;4.368;2023-10-13T06:09:26;17.00;;;5.88;;
35602;SDS011;21725;50.836;4.368;2023-10-13T06:12:50;18.73;;;6.63;;
35602;SDS011;21725;50.836;4.368;2023-10-13T06:16:10;19.73;;;7.47;;
35602;SDS011;21725;50.836;4.368;2023-10-13T06:19:38;13.23;;;6.15;;
35602;SDS011;21725;50.836;4.368;2023-10-13T06:23:02;15.38;;;5.97;;
35602;SDS011;21725;50.836;4.368;2023-10-13T06:26:24;10.70;;;5.07;;
35602;SDS011;21725;50.836;4.368;2023-10-13T06:29:46;19.25;;;5.15;;
35602;SDS011;21725;50.836;4.368;2023-10-13T06:32:51;17.17;;;8.57;;
35602;SDS011;21725;50.836;4.368;2023-10-13T06:36:01;20.27;;;6.13;;
35602;SDS011;21725;50.836;4.368;2023-10-13T06:39:11;12.95;;;5.88;;
35602;SDS011;21725;50.836;4.368;2023-10-13T06:42:37;17.25;;;7.03;;
35602;SDS011;21725;50.836;4.368;2023-10-13T06:45:43;17.50;;;5.82;;
35602;SDS011;21725;50.836;4.368;2023-10-13T06:49:05;14.82;;;5.88;;
35602;SDS011;21725;50.836;4.368;2023-10-13T06:52:11;14.82;;;6.50;;
35602;SDS011;21725;50.836;4.368;2023-10-13T06:55:17;17.73;;;5.90;;
35602;SDS011;21725;50.836;4.368;2023-10-13T06:58:32;15.85;;;6.03;;
35602;SDS011;21725;50.836;4.368;2023-10-13T07:01:45;13.55;;;5.55;;
35602;SDS011;21725;50.836;4.368;2023-10-13T07:04:55;18.17;;;5.97;;
35602;SDS011;21725;50.836;4.368;2023-10-13T07:08:21;13.73;;;5.85;;
35602;SDS011;21725;50.836;4.368;2023-10-13T07:11:45;15.30;;;7.57;;
35602;SDS011;21725;50.836;4.368;2023-10-13T07:15:03;11.60;;;6.18;;
35602;SDS011;21725;50.836;4.368;2023-10-13T07:18:16;21.27;;;6.60;;
35602;SDS011;21725;50.836;4.368;2023-10-13T07:21:25;15.27;;;5.68;;
35602;SDS011;21725;50.836;4.368;2023-10-13T07:24:31;18.27;;;6.27;;
35602;SDS011;21725;50.836;4.368;2023-10-13T07:27:41;16.90;;;6.05;;
35602;SDS011;21725;50.836;4.368;2023-10-13T07:30:50;16.60;;;5.95;;
35602;SDS011;21725;50.836;4.368;2023-10-13T07:33:59;17.92;;;6.78;;
35602;SDS011;21725;50.836;4.368;2023-10-13T07:37:15;14.25;;;5.18;;
35602;SDS011;21725;50.836;4.368;2023-10-13T07:40:29;16.75;;;6.40;;
35602;SDS011;21725;50.836;4.368;2023-10-13T07:46:41;19.13;;;6.65;;
35602;SDS011;21725;50.836;4.368;2023-10-13T07:49:46;14.05;;;4.80;;
35602;SDS011;21725;50.836;4.368;2023-10-13T07:53:04;12.75;;;5.47;;
35602;SDS011;21725;50.836;4.368;2023-10-13T07:56:33;15.45;;;7.05;;
35602;SDS011;21725;50.836;4.368;2023-10-13T07:59:36;17.70;;;5.78;;
35602;SDS011;21725;50.836;4.368;2023-10-13T08:02:46;12.52;;;5.68;;
35602;SDS011;21725;50.836;4.368;2023-10-13T08:06:10;15.60;;;6.15;;
35602;SDS011;21725;50.836;4.368;2023-10-13T08:09:26;13.68;;;5.53;;
35602;SDS011;21725;50.836;4.368;2023-10-13T08:12:40;13.05;;;6.53;;
35602;SDS011;21725;50.836;4.368;2023-10-13T08:15:46;16.00;;;6.40;;
35602;SDS011;21725;50.836;4.368;2023-10-13T08:19:01;20.92;;;6.30;;
35602;SDS011;21725;50.836;4.368;2023-10-13T08:22:02;17.25;;;7.18;;
35602;SDS011;21725;50.836;4.368;2023-10-13T08:25:21;14.73;;;7.13;;
35602;SDS011;21725;50.836;4.368;2023-10-13T08:28:25;18.20;;;7.22;;
35602;SDS011;21725;50.836;4.368;2023-10-13T08:31:56;18.75;;;6.93;;
35602;SDS011;21725;50.836;4.368;2023-10-13T08:35:24;18.20;;;8.88;;
35602;SDS011;21725;50.836;4.368;2023-10-13T08:39:07;19.90;;;6.28;;
35602;SDS011;21725;50.836;4.368;2023-10-13T08:42:45;13.57;;;5.28;;
35602;SDS011;21725;50.836;4.368;2023-10-13T08:46:01;21.27;;;5.75;;
35602;SDS011;21725;50.836;4.368;2023-10-13T08:49:06;23.77;;;5.63;;
35602;SDS011;21725;50.836;4.368;2023-10-13T08:52:20;14.52;;;6.40;;
35602;SDS011;21725;50.836;4.368;2023-10-13T08:55:42;13.77;;;7.75;;
35602;SDS011;21725;50.836;4.368;2023-10-13T08:59:03;13.50;;;5.88;;
35602;SDS011;21725;50.836;4.368;2023-10-13T09:02:16;18.15;;;6.00;;
35602;SDS011;21725;50.836;4.368;2023-10-13T09:05:20;12.65;;;5.40;;
35602;SDS011;21725;50.836;4.368;2023-10-13T09:08:54;15.27;;;6.57;;
35602;SDS011;21725;50.836;4.368;2023-10-13T09:12:34;17.38;;;6.20;;
35602;SDS011;21725;50.836;4.368;2023-10-13T09:15:38;15.65;;;5.68;;
35602;SDS011;21725;50.836;4.368;2023-10-13T09:19:11;13.57;;;6.75;;
35602;SDS011;21725;50.836;4.368;2023-10-13T09:22:19;32.53;;;7.03;;
35602;SDS011;21725;50.836;4.368;2023-10-13T09:25:41;15.88;;;6.57;;
35602;SDS011;21725;50.836;4.368;2023-10-13T09:29:21;15.15;;;6.55;;
35602;SDS011;21725;50.836;4.368;2023-10-13T09:32:41;16.45;;;5.72;;
35602;SDS011;21725;50.836;4.368;2023-10-13T09:35:54;18.17;;;6.30;;
35602;SDS011;21725;50.836;4.368;2023-10-13T09:38:55;26.30;;;8.43;;
35602;SDS011;21725;50.836;4.368;2023-10-13T09:42:29;21.52;;;8.32;;
35602;SDS011;21725;50.836;4.368;2023-10-13T09:45:36;20.10;;;6.50;;
35602;SDS011;21725;50.836;4.368;2023-10-13T09:48:44;15.85;;;6.88;;
35602;SDS011;21725;50.836;4.368;2023-10-13T09:52:07;20.63;;;8.20;;
35602;SDS011;21725;50.836;4.368;2023-10-13T09:58:29;20.63;;;6.78;;
35602;SDS011;21725;50.836;4.368;2023-10-13T10:01:37;19.90;;;7.22;;
35602;SDS011;21725;50.836;4.368;2023-10-13T10:04:53;16.35;;;5.60;;
35602;SDS011;21725;50.836;4.368;2023-10-13T10:08:11;17.63;;;7.00;;
35602;SDS011;21725;50.836;4.368;2023-10-13T10:15:19;19.92;;;5.70;;
35602;SDS011;21725;50.836;4.368;2023-10-13T10:18:43;26.00;;;6.63;;
35602;SDS011;21725;50.836;4.368;2023-10-13T10:21:46;18.35;;;6.85;;
35602;SDS011;21725;50.836;4.368;2023-10-13T10:28:38;19.67;;;6.43;;
35602;SDS011;21725;50.836;4.368;2023-10-13T10:31:41;18.48;;;7.30;;
35602;SDS011;21725;50.836;4.368;2023-10-13T10:34:47;17.42;;;6.35;;
35602;SDS011;21725;50.836;4.368;2023-10-13T10:38:16;27.23;;;12.77;;
35602;SDS011;21725;50.836;4.368;2023-10-13T10:41:28;19.50;;;7.45;;
35602;SDS011;21725;50.836;4.368;2023-10-13T10:44:40;20.77;;;7.75;;
35602;SDS011;21725;50.836;4.368;2023-10-13T10:48:16;16.80;;;5.53;;
35602;SDS011;21725;50.836;4.368;2023-10-13T10:51:19;28.40;;;7.82;;
35602;SDS011;21725;50.836;4.368;2023-10-13T10:54:23;19.67;;;7.57;;
35602;SDS011;21725;50.836;4.368;2023-10-13T10:57:31;23.33;;;7.90;;
35602;SDS011;21725;50.836;4.368;2023-10-13T11:00:39;18.63;;;7.75;;
35602;SDS011;21725;50.836;4.368;2023-10-13T11:04:02;12.82;;;7.25;;
35602;SDS011;21725;50.836;4.368;2023-10-13T11:07:08;15.32;;;7.78;;
35602;SDS011;21725;50.836;4.368;2023-10-13T11:10:20;26.55;;;8.30;;
35602;SDS011;21725;50.836;4.368;2023-10-13T11:13:38;20.10;;;6.72;;
35602;SDS011;21725;50.836;4.368;2023-10-13T11:17:08;17.30;;;6.95;;
35602;SDS011;21725;50.836;4.368;2023-10-13T11:20:31;26.13;;;6.78;;
35602;SDS011;21725;50.836;4.368;2023-10-13T11:23:54;18.13;;;6.80;;
35602;SDS011;21725;50.836;4.368;2023-10-13T11:27:15;27.40;;;8.32;;
35602;SDS011;21725;50.836;4.368;2023-10-13T11:30:37;18.70;;;8.48;;
35602;SDS011;21725;50.836;4.368;2023-10-13T11:33:49;17.42;;;7.95;;
35602;SDS011;21725;50.836;4.368;2023-10-13T11:36:52;16.63;;;7.45;;
35602;SDS011;21725;50.836;4.368;2023-10-13T11:46:54;21.77;;;6.82;;
35602;SDS011;21725;50.836;4.368;2023-10-13T11:50:19;16.90;;;6.05;;
35602;SDS011;21725;50.836;4.368;2023-10-13T11:53:43;23.40;;;7.70;;
35602;SDS011;21725;50.836;4.368;2023-10-13T11:56:51;14.07;;;6.00;;
35602;SDS011;21725;50.836;4.368;2023-10-13T12:03:52;21.40;;;6.82;;
35602;SDS011;21725;50.836;4.368;2023-10-13T12:07:16;18.35;;;7.13;;
35602;SDS011;21725;50.836;4.368;2023-10-13T12:10:42;26.50;;;7.28;;
35602;SDS011;21725;50.836;4.368;2023-10-13T12:14:06;17.50;;;6.90;;
35602;SDS011;21725;50.836;4.368;2023-10-13T12:17:19;20.63;;;6.28;;
35602;SDS011;21725;50.836;4.368;2023-10-13T12:20:27;33.40;;;6.53;;
35602;SDS011;21725;50.836;4.368;2023-10-13T12:23:40;17.08;;;6.22;;
35602;SDS011;21725;50.836;4.368;2023-10-13T12:26:45;14.57;;;6.30;;
35602;SDS011;21725;50.836;4.368;2023-10-13T12:29:51;18.33;;;6.55;;
35602;SDS011;21725;50.836;4.368;2023-10-13T12:32:59;28.00;;;7.03;;
35602;SDS011;21725;50.836;4.368;2023-10-13T12:36:11;20.92;;;6.53;;
35602;SDS011;21725;50.836;4.368;2023-10-13T12:39:44;34.08;;;7.70;;
35602;SDS011;21725;50.836;4.368;2023-10-13T12:43:06;23.30;;;6.63;;
35602;SDS011;21725;50.836;4.368;2023-10-13T12:46:28;17.13;;;7.25;;
35602;SDS011;21725;50.836;4.368;2023-10-13T12:49:47;19.52;;;6.05;;
35602;SDS011;21725;50.836;4.368;2023-10-13T12:52:50;9.57;;;5.30;;
35602;SDS011;21725;50.836;4.368;2023-10-13T12:55:53;16.13;;;5.90;;
35602;SDS011;21725;50.836;4.368;2023-10-13T12:58:56;14.02;;;5.72;;
35602;SDS011;21725;50.836;4.368;2023-10-13T13:02:01;22.02;;;6.70;;
35602;SDS011;21725;50.836;4.368;2023-10-13T13:05:17;14.98;;;5.40;;
35602;SDS011;21725;50.836;4.368;2023-10-13T13:08:24;17.08;;;5.18;;
35602;SDS011;21725;50.836;4.368;2023-10-13T13:11:37;18.23;;;6.47;;
35602;SDS011;21725;50.836;4.368;2023-10-13T13:14:43;15.45;;;5.32;;
35602;SDS011;21725;50.836;4.368;2023-10-13T13:17:46;16.98;;;5.15;;
35602;SDS011;21725;50.836;4.368;2023-10-13T13:20:47;25.77;;;7.30;;
35602;SDS011;21725;50.836;4.368;2023-10-13T13:23:56;10.95;;;5.20;;
35602;SDS011;21725;50.836;4.368;2023-10-13T13:27:05;17.92;;;5.97;;
35602;SDS011;21725;50.836;4.368;2023-10-13T13:30:25;12.65;;;5.40;;
35602;SDS011;21725;50.836;4.368;2023-10-13T13:33:33;16.88;;;5.93;;
35602;SDS011;21725;50.836;4.368;2023-10-13T13:36:43;11.75;;;5.95;;
35602;SDS011;21725;50.836;4.368;2023-10-13T13:39:52;14.80;;;6.15;;
35602;SDS011;21725;50.836;4.368;2023-10-13T13:42:56;14.70;;;5.10;;
35602;SDS011;21725;50.836;4.368;2023-10-13T13:46:03;13.20;;;5.30;;
35602;SDS011;21725;50.836;4.368;2023-10-13T13:49:09;16.42;;;6.07;;
35602;SDS011;21725;50.836;4.368;2023-10-13T13:52:18;12.13;;;5.05;;
35602;SDS011;21725;50.836;4.368;2023-10-13T13:55:35;23.88;;;6.18;;
35602;SDS011;21725;50.836;4.368;2023-10-13T13:58:40;17.95;;;6.35;;
35602;SDS011;21725;50.836;4.368;2023-10-13T14:01:41;11.77;;;5.30;;
35602;SDS011;21725;50.836;4.368;2023-10-13T14:04:55;11.15;;;5.45;;
35602;SDS011;21725;50.836;4.368;2023-10-13T14:08:10;11.80;;;6.05;;
35602;SDS011;21725;50.836;4.368;2023-10-13T14:11:32;13.65;;;6.53;;
35602;SDS011;21725;50.836;4.368;2023-10-13T14:15:01;16.75;;;5.32;;
35602;SDS011;21725;50.836;4.368;2023-10-13T14:18:19;14.40;;;5.55;;
35602;SDS011;21725;50.836;4.368;2023-10-13T14:21:33;16.73;;;6.22;;
35602;SDS011;21725;50.836;4.368;2023-10-13T14:24:37;12.00;;;6.30;;
35602;SDS011;21725;50.836;4.368;2023-10-13T14:27:55;17.13;;;6.00;;
35602;SDS011;21725;50.836;4.368;2023-10-13T14:31:06;11.85;;;6.28;;
35602;SDS011;21725;50.836;4.368;2023-10-13T14:34:10;12.73;;;5.38;;
35602;SDS011;21725;50.836;4.368;2023-10-13T14:37:22;17.10;;;6.53;;
35602;SDS011;21725;50.836;4.368;2023-10-13T14:40:26;16.80;;;6.25;;
35602;SDS011;21725;50.836;4.368;2023-10-13T14:43:37;17.58;;;7.40;;
35602;SDS011;21725;50.836;4.368;2023-10-13T14:46:47;14.00;;;6.30;;
35602;SDS011;21725;50.836;4.368;2023-10-13T14:49:53;12.98;;;5.38;;
35602;SDS011;21725;50.836;4.368;2023-10-13T14:53:03;13.27;;;6.18;;
35602;SDS011;21725;50.836;4.368;2023-10-13T14:56:04;13.23;;;5.32;;
35602;SDS011;21725;50.836;4.368;2023-10-13T14:59:08;15.25;;;5.63;;
35602;SDS011;21725;50.836;4.368;2023-10-13T15:02:17;12.90;;;6.28;;
35602;SDS011;21725;50.836;4.368;2023-10-13T15:05:20;11.00;;;4.88;;
35602;SDS011;21725;50.836;4.368;2023-10-13T15:08:20;15.35;;;6.20;;
35602;SDS011;21725;50.836;4.368;2023-10-13T15:11:28;15.52;;;6.55;;
35602;SDS011;21725;50.836;4.368;2023-10-13T15:14:40;14.55;;;6.25;;
35602;SDS011;21725;50.836;4.368;2023-10-13T15:17:44;12.60;;;6.10;;
35602;SDS011;21725;50.836;4.368;2023-10-13T15:20:54;16.58;;;7.07;;
35602;SDS011;21725;50.836;4.368;2023-10-13T15:24:11;11.45;;;5.95;;
35602;SDS011;21725;50.836;4.368;2023-10-13T15:27:17;23.65;;;7.13;;
35602;SDS011;21725;50.836;4.368;2023-10-13T15:30:22;14.10;;;6.35;;
35602;SDS011;21725;50.836;4.368;2023-10-13T15:33:33;15.77;;;7.18;;
35602;SDS011;21725;50.836;4.368;2023-10-13T15:36:44;26.70;;;6.80;;
35602;SDS011;21725;50.836;4.368;2023-10-13T15:39:56;14.25;;;6.22;;
35602;SDS011;21725;50.836;4.368;2023-10-13T15:43:04;15.27;;;5.60;;
35602;SDS011;21725;50.836;4.368;2023-10-13T15:46:11;14.98;;;7.03;;
35602;SDS011;21725;50.836;4.368;2023-10-13T15:49:23;14.55;;;7.90;;
35602;SDS011;21725;50.836;4.368;2023-10-13T15:52:29;14.20;;;5.15;;
35602;SDS011;21725;50.836;4.368;2023-10-13T15:55:41;16.70;;;5.95;;
35602;SDS011;21725;50.836;4.368;2023-10-13T15:58:48;21.65;;;6.40;;
35602;SDS011;21725;50.836;4.368;2023-10-13T16:01:50;12.45;;;5.78;;
35602;SDS011;21725;50.836;4.368;2023-10-13T16:04:57;15.05;;;5.60;;
35602;SDS011;21725;50.836;4.368;2023-10-13T16:08:07;15.70;;;5.63;;
35602;SDS011;21725;50.836;4.368;2023-10-13T16:11:12;16.88;;;5.20;;
35602;SDS011;21725;50.836;4.368;2023-10-13T16:14:19;16.08;;;7.15;;
35602;SDS011;21725;50.836;4.368;2023-10-13T16:17:21;10.57;;;5.43;;
35602;SDS011;21725;50.836;4.368;2023-10-13T16:20:31;24.77;;;6.63;;
35602;SDS011;21725;50.836;4.368;2023-10-13T16:23:35;10.05;;;5.32;;
35602;SDS011;21725;50.836;4.368;2023-10-13T16:27:07;15.00;;;6.10;;
35602;SDS011;21725;50.836;4.368;2023-10-13T16:30:12;15.10;;;5.25;;
35602;SDS011;21725;50.836;4.368;2023-10-13T16:33:22;16.60;;;6.70;;
35602;SDS011;21725;50.836;4.368;2023-10-13T16:36:34;14.73;;;5.78;;
35602;SDS011;21725;50.836;4.368;2023-10-13T16:39:38;14.88;;;6.88;;
35602;SDS011;21725;50.836;4.368;2023-10-13T16:42:41;15.48;;;5.68;;
35602;SDS011;21725;50.836;4.368;2023-10-13T16:45:44;14.15;;;6.72;;
35602;SDS011;21725;50.836;4.368;2023-10-13T16:48:47;20.95;;;7.55;;
35602;SDS011;21725;50.836;4.368;2023-10-13T16:51:48;19.48;;;6.25;;
35602;SDS011;21725;50.836;4.368;2023-10-13T16:54:50;12.00;;;6.47;;
35602;SDS011;21725;50.836;4.368;2023-10-13T16:57:56;11.50;;;5.20;;
35602;SDS011;21725;50.836;4.368;2023-10-13T17:00:59;13.15;;;6.80;;
35602;SDS011;21725;50.836;4.368;2023-10-13T17:04:08;20.15;;;7.07;;
35602;SDS011;21725;50.836;4.368;2023-10-13T17:07:14;15.05;;;6.70;;
35602;SDS011;21725;50.836;4.368;2023-10-13T17:10:18;12.18;;;6.38;;
35602;SDS011;21725;50.836;4.368;2023-10-13T17:13:22;15.45;;;6.22;;
35602;SDS011;21725;50.836;4.368;2023-10-13T17:16:25;21.30;;;7.38;;
35602;SDS011;21725;50.836;4.368;2023-10-13T17:19:28;17.55;;;7.70;;
35602;SDS011;21725;50.836;4.368;2023-10-13T17:22:51;24.38;;;6.45;;
35602;SDS011;21725;50.836;4.368;2023-10-13T17:26:04;13.52;;;6.45;;
35602;SDS011;21725;50.836;4.368;2023-10-13T17:29:38;14.25;;;6.13;;
35602;SDS011;21725;50.836;4.368;2023-10-13T17:36:01;16.92;;;7.03;;
35602;SDS011;21725;50.836;4.368;2023-10-13T17:39:06;14.88;;;6.72;;
35602;SDS011;21725;50.836;4.368;2023-10-13T17:42:11;19.42;;;8.68;;
35602;SDS011;21725;50.836;4.368;2023-10-13T17:45:18;16.15;;;6.60;;
35602;SDS011;21725;50.836;4.368;2023-10-13T17:48:19;14.25;;;6.68;;
35602;SDS011;21725;50.836;4.368;2023-10-13T17:51:22;16.80;;;6.47;;
35602;SDS011;21725;50.836;4.368;2023-10-13T17:54:23;25.13;;;9.60;;
35602;SDS011;21725;50.836;4.368;2023-10-13T17:57:24;13.85;;;6.68;;
35602;SDS011;21725;50.836;4.368;2023-10-13T18:00:28;12.77;;;6.35;;
35602;SDS011;21725;50.836;4.368;2023-10-13T18:03:28;13.23;;;6.50;;
35602;SDS011;21725;50.836;4.368;2023-10-13T18:06:29;15.73;;;6.28;;
35602;SDS011;21725;50.836;4.368;2023-10-13T18:09:31;16.90;;;7.30;;
35602;SDS011;21725;50.836;4.368;2023-10-13T18:12:32;23.50;;;6.57;;
35602;SDS011;21725;50.836;4.368;2023-10-13T18:15:33;15.50;;;7.07;;
35602;SDS011;21725;50.836;4.368;2023-10-13T18:18:33;15.98;;;6.80;;
35602;SDS011;21725;50.836;4.368;2023-10-13T18:21:34;19.48;;;6.60;;
35602;SDS011;21725;50.836;4.368;2023-10-13T18:24:36;18.73;;;7.80;;
35602;SDS011;21725;50.836;4.368;2023-10-13T18:27:36;19.17;;;8.45;;
35602;SDS011;21725;50.836;4.368;2023-10-13T18:30:42;16.95;;;8.43;;
35602;SDS011;21725;50.836;4.368;2023-10-13T18:33:42;23.05;;;9.43;;
35602;SDS011;21725;50.836;4.368;2023-10-13T18:36:50;17.10;;;7.75;;
35602;SDS011;21725;50.836;4.368;2023-10-13T18:39:52;18.23;;;7.90;;
35602;SDS011;21725;50.836;4.368;2023-10-13T18:42:52;16.15;;;8.95;;
35602;SDS011;21725;50.836;4.368;2023-10-13T18:45:59;15.07;;;7.20;;
35602;SDS011;21725;50.836;4.368;2023-10-13T18:49:06;17.05;;;8.20;;
35602;SDS011;21725;50.836;4.368;2023-10-13T18:52:10;18.52;;;8.20;;
35602;SDS011;21725;50.836;4.368;2023-10-13T18:55:11;15.40;;;7.63;;
35602;SDS011;21725;50.836;4.368;2023-10-13T18:58:15;25.02;;;12.85;;
35602;SDS011;21725;50.836;4.368;2023-10-13T19:01:18;23.90;;;11.98;;
35602;SDS011;21725;50.836;4.368;2023-10-13T19:04:27;26.35;;;10.25;;
35602;SDS011;21725;50.836;4.368;2023-10-13T19:07:52;18.63;;;8.02;;
35602;SDS011;21725;50.836;4.368;2023-10-13T19:11:18;15.48;;;7.93;;
35602;SDS011;21725;50.836;4.368;2023-10-13T19:14:22;20.02;;;8.68;;
35602;SDS011;21725;50.836;4.368;2023-10-13T19:18:01;16.50;;;8.32;;
35602;SDS011;21725;50.836;4.368;2023-10-13T19:21:25;15.18;;;7.00;;
35602;SDS011;21725;50.836;4.368;2023-10-13T19:24:36;29.33;;;14.30;;
35602;SDS011;21725;50.836;4.368;2023-10-13T19:27:54;17.90;;;8.88;;
35602;SDS011;21725;50.836;4.368;2023-10-13T19:31:20;16.55;;;8.63;;
35602;SDS011;21725;50.836;4.368;2023-10-13T19:34:49;27.95;;;10.48;;
35602;SDS011;21725;50.836;4.368;2023-10-13T19:38:18;18.02;;;8.32;;
35602;SDS011;21725;50.836;4.368;2023-10-13T19:41:24;20.10;;;8.13;;
35602;SDS011;21725;50.836;4.368;2023-10-13T19:44:35;17.73;;;7.57;;